Aviation Digital Data Service (ADDS)

Output produced by METARs form (1212 UTC 19 January 2019)
found at http://www.aviationweather.gov/metar/data/
 
METAR text: VOHY 191200Z VRB03KT 5000 HZ NSC 27/15 Q1017 NOSIG
Conditions at: VOHY (HYDERABAD (CIV/M, IN) observed 1200 UTC 19 January 2019
Temperature: 27.0°C (81°F)
Dewpoint: 15.0°C (59°F) [RH = 48%]
Pressure (altimeter): 30.03 inches Hg (1017.0 mb)
Winds: variable direction winds at 3 MPH (3 knots; 1.5 m/s)
Visibility: 3 miles ( 5 km)
Ceiling: at least 12,000 feet AGL
Clouds: sky clear below 12,000 feet AGL
Weather: HZ  (haze)

METAR text: VOHY 191130Z 14004KT 5000 HZ NSC 28/15 Q1017 NOSIG
Conditions at: VOHY (HYDERABAD (CIV/M, IN) observed 1130 UTC 19 January 2019
Temperature: 28.0°C (82°F)
Dewpoint: 15.0°C (59°F) [RH = 45%]
Pressure (altimeter): 30.03 inches Hg (1017.0 mb)
Winds: from the SE (140 degrees) at 5 MPH (4 knots; 2.1 m/s)
Visibility: 3 miles ( 5 km)
Ceiling: at least 12,000 feet AGL
Clouds: sky clear below 12,000 feet AGL
Weather: HZ  (haze)

METAR text: VOHY 191100Z VRB03KT 5000 HZ NSC 28/15 Q1017 NOSIG
Conditions at: VOHY (HYDERABAD (CIV/M, IN) observed 1100 UTC 19 January 2019
Temperature: 28.0°C (82°F)
Dewpoint: 15.0°C (59°F) [RH = 45%]
Pressure (altimeter): 30.03 inches Hg (1017.0 mb)
Winds: variable direction winds at 3 MPH (3 knots; 1.5 m/s)
Visibility: 3 miles ( 5 km)
Ceiling: at least 12,000 feet AGL
Clouds: sky clear below 12,000 feet AGL
Weather: HZ  (haze)

METAR text: VOHY 191030Z VRB03KT 5000 HZ NSC 29/15 Q1017 NOSIG
Conditions at: VOHY (HYDERABAD (CIV/M, IN) observed 1030 UTC 19 January 2019
Temperature: 29.0°C (84°F)
Dewpoint: 15.0°C (59°F) [RH = 43%]
Pressure (altimeter): 30.03 inches Hg (1017.0 mb)
Winds: variable direction winds at 3 MPH (3 knots; 1.5 m/s)
Visibility: 3 miles ( 5 km)
Ceiling: at least 12,000 feet AGL
Clouds: sky clear below 12,000 feet AGL
Weather: HZ  (haze)

METAR text: VOHY 191000Z VRB03KT 5000 HZ NSC 28/15 Q1017 NOSIG
Conditions at: VOHY (HYDERABAD (CIV/M, IN) observed 1000 UTC 19 January 2019
Temperature: 28.0°C (82°F)
Dewpoint: 15.0°C (59°F) [RH = 45%]
Pressure (altimeter): 30.03 inches Hg (1017.0 mb)
Winds: variable direction winds at 3 MPH (3 knots; 1.5 m/s)
Visibility: 3 miles ( 5 km)
Ceiling: at least 12,000 feet AGL
Clouds: sky clear below 12,000 feet AGL
Weather: HZ  (haze)

METAR text: VOHY 190930Z VRB03KT 5000 HZ NSC 29/15 Q1017 NOSIG
Conditions at: VOHY (HYDERABAD (CIV/M, IN) observed 0930 UTC 19 January 2019
Temperature: 29.0°C (84°F)
Dewpoint: 15.0°C (59°F) [RH = 43%]
Pressure (altimeter): 30.03 inches Hg (1017.0 mb)
Winds: variable direction winds at 3 MPH (3 knots; 1.5 m/s)
Visibility: 3 miles ( 5 km)
Ceiling: at least 12,000 feet AGL
Clouds: sky clear below 12,000 feet AGL
Weather: HZ  (haze)

METAR text: VOHY 190900Z VRB03KT 5000 HZ NSC 29/15 Q1018 NOSIG
Conditions at: VOHY (HYDERABAD (CIV/M, IN) observed 0900 UTC 19 January 2019
Temperature: 29.0°C (84°F)
Dewpoint: 15.0°C (59°F) [RH = 43%]
Pressure (altimeter): 30.06 inches Hg (1018.0 mb)
Winds: variable direction winds at 3 MPH (3 knots; 1.5 m/s)
Visibility: 3 miles ( 5 km)
Ceiling: at least 12,000 feet AGL
Clouds: sky clear below 12,000 feet AGL
Weather: HZ  (haze)

METAR text: VOHY 190830Z VRB03KT 5000 HZ NSC 28/14 Q1018 NOSIG
Conditions at: VOHY (HYDERABAD (CIV/M, IN) observed 0830 UTC 19 January 2019
Temperature: 28.0°C (82°F)
Dewpoint: 14.0°C (57°F) [RH = 42%]
Pressure (altimeter): 30.06 inches Hg (1018.0 mb)
Winds: variable direction winds at 3 MPH (3 knots; 1.5 m/s)
Visibility: 3 miles ( 5 km)
Ceiling: at least 12,000 feet AGL
Clouds: sky clear below 12,000 feet AGL
Weather: HZ  (haze)

METAR text: VOHY 190800Z 14005KT 5000 HZ NSC 28/14 Q1019 NOSIG
Conditions at: VOHY (HYDERABAD (CIV/M, IN) observed 0800 UTC 19 January 2019
Temperature: 28.0°C (82°F)
Dewpoint: 14.0°C (57°F) [RH = 42%]
Pressure (altimeter): 30.09 inches Hg (1019.0 mb)
Winds: from the SE (140 degrees) at 6 MPH (5 knots; 2.6 m/s)
Visibility: 3 miles ( 5 km)
Ceiling: at least 12,000 feet AGL
Clouds: sky clear below 12,000 feet AGL
Weather: HZ  (haze)

METAR text: VOHY 190730Z 09006KT 5000 HZ NSC 28/14 Q1020 NOSIG
Conditions at: VOHY (HYDERABAD (CIV/M, IN) observed 0730 UTC 19 January 2019
Temperature: 28.0°C (82°F)
Dewpoint: 14.0°C (57°F) [RH = 42%]
Pressure (altimeter): 30.12 inches Hg (1020.0 mb)
Winds: from the E (90 degrees) at 7 MPH (6 knots; 3.1 m/s)
Visibility: 3 miles ( 5 km)
Ceiling: at least 12,000 feet AGL
Clouds: sky clear below 12,000 feet AGL
Weather: HZ  (haze)

METAR text: VOHY 190700Z 05006KT 5000 HZ NSC 29/13 Q1020 NOSIG
Conditions at: VOHY (HYDERABAD (CIV/M, IN) observed 0700 UTC 19 January 2019
Temperature: 29.0°C (84°F)
Dewpoint: 13.0°C (55°F) [RH = 37%]
Pressure (altimeter): 30.12 inches Hg (1020.0 mb)
Winds: from the NE (50 degrees) at 7 MPH (6 knots; 3.1 m/s)
Visibility: 3 miles ( 5 km)
Ceiling: at least 12,000 feet AGL
Clouds: sky clear below 12,000 feet AGL
Weather: HZ  (haze)

METAR text: VOHY 190630Z VRB03KT 5000 HZ NSC 29/17 Q1020 NOSIG
Conditions at: VOHY (HYDERABAD (CIV/M, IN) observed 0630 UTC 19 January 2019
Temperature: 29.0°C (84°F)
Dewpoint: 17.0°C (63°F) [RH = 48%]
Pressure (altimeter): 30.12 inches Hg (1020.0 mb)
Winds: variable direction winds at 3 MPH (3 knots; 1.5 m/s)
Visibility: 3 miles ( 5 km)
Ceiling: at least 12,000 feet AGL
Clouds: sky clear below 12,000 feet AGL
Weather: HZ  (haze)

METAR text: VOHY 190600Z VRB03KT 5000 HZ NSC 28/17 Q1021 NOSIG
Conditions at: VOHY (HYDERABAD (CIV/M, IN) observed 0600 UTC 19 January 2019
Temperature: 28.0°C (82°F)
Dewpoint: 17.0°C (63°F) [RH = 51%]
Pressure (altimeter): 30.15 inches Hg (1021.0 mb)
Winds: variable direction winds at 3 MPH (3 knots; 1.5 m/s)
Visibility: 3 miles ( 5 km)
Ceiling: at least 12,000 feet AGL
Clouds: sky clear below 12,000 feet AGL
Weather: HZ  (haze)

METAR text: VOHY 190530Z 14005KT 5000 HZ NSC 28/17 Q1021 NOSIG
Conditions at: VOHY (HYDERABAD (CIV/M, IN) observed 0530 UTC 19 January 2019
Temperature: 28.0°C (82°F)
Dewpoint: 17.0°C (63°F) [RH = 51%]
Pressure (altimeter): 30.15 inches Hg (1021.0 mb)
Winds: from the SE (140 degrees) at 6 MPH (5 knots; 2.6 m/s)
Visibility: 3 miles ( 5 km)
Ceiling: at least 12,000 feet AGL
Clouds: sky clear below 12,000 feet AGL
Weather: HZ  (haze)

METAR text: VOHY 190430Z 18005KT 5000 HZ NSC 26/20 Q1021 NOSIG
Conditions at: VOHY (HYDERABAD (CIV/M, IN) observed 0430 UTC 19 January 2019
Temperature: 26.0°C (79°F)
Dewpoint: 20.0°C (68°F) [RH = 70%]
Pressure (altimeter): 30.15 inches Hg (1021.0 mb)
Winds: from the S (180 degrees) at 6 MPH (5 knots; 2.6 m/s)
Visibility: 3 miles ( 5 km)
Ceiling: at least 12,000 feet AGL
Clouds: sky clear below 12,000 feet AGL
Weather: HZ  (haze)

METAR text: VOHY 190400Z 18005KT 3000 BR NSC 25/19 Q1021 BECMG 5000 HZ
Conditions at: VOHY (HYDERABAD (CIV/M, IN) observed 0400 UTC 19 January 2019
Temperature: 25.0°C (77°F)
Dewpoint: 19.0°C (66°F) [RH = 69%]
Pressure (altimeter): 30.15 inches Hg (1021.0 mb)
Winds: from the S (180 degrees) at 6 MPH (5 knots; 2.6 m/s)
Visibility: 1.86 miles (2.99 km)
Ceiling: at least 12,000 feet AGL
Clouds: sky clear below 12,000 feet AGL
Weather: BR  (mist)

METAR text: VOHY 190330Z 00000KT 3000 BR NSC 23/19 Q1020 BECMG 5000 HZ
Conditions at: VOHY (HYDERABAD (CIV/M, IN) observed 0330 UTC 19 January 2019
Temperature: 23.0°C (73°F)
Dewpoint: 19.0°C (66°F) [RH = 78%]
Pressure (altimeter): 30.12 inches Hg (1020.0 mb)
Winds: calm
Visibility: 1.86 miles (2.99 km)
Ceiling: at least 12,000 feet AGL
Clouds: sky clear below 12,000 feet AGL
Weather: BR  (mist)

METAR text: VOHY 190300Z 00000KT 1500 BR NSC 20/18 Q1020 BECMG 3000 BR
Conditions at: VOHY (HYDERABAD (CIV/M, IN) observed 0300 UTC 19 January 2019
Temperature: 20.0°C (68°F)
Dewpoint: 18.0°C (64°F) [RH = 88%]
Pressure (altimeter): 30.12 inches Hg (1020.0 mb)
Winds: calm
Visibility: 0.93 miles (1.50 km)
Ceiling: at least 12,000 feet AGL
Clouds: sky clear below 12,000 feet AGL
Weather: BR  (mist)

METAR text: VOHY 190230Z 00000KT 1500 BR NSC 17/16 Q1020 NOSIG
Conditions at: VOHY (HYDERABAD (CIV/M, IN) observed 0230 UTC 19 January 2019
Temperature: 17.0°C (63°F)
Dewpoint: 16.0°C (61°F) [RH = 94%]
Pressure (altimeter): 30.12 inches Hg (1020.0 mb)
Winds: calm
Visibility: 0.93 miles (1.50 km)
Ceiling: at least 12,000 feet AGL
Clouds: sky clear below 12,000 feet AGL
Weather: BR  (mist)

METAR text: VOHY 190200Z 00000KT 1500 BR NSC 16/15 Q1019 NOSIG
Conditions at: VOHY (HYDERABAD (CIV/M, IN) observed 0200 UTC 19 January 2019
Temperature: 16.0°C (61°F)
Dewpoint: 15.0°C (59°F) [RH = 94%]
Pressure (altimeter): 30.09 inches Hg (1019.0 mb)
Winds: calm
Visibility: 0.93 miles (1.50 km)
Ceiling: at least 12,000 feet AGL
Clouds: sky clear below 12,000 feet AGL
Weather: BR  (mist)

METAR text: VOHY 181600Z 00000KT 5000 HZ NSC 21/15 Q1018 NOSIG
Conditions at: VOHY (HYDERABAD (CIV/M, IN) observed 1600 UTC 18 January 2019
Temperature: 21.0°C (70°F)
Dewpoint: 15.0°C (59°F) [RH = 69%]
Pressure (altimeter): 30.06 inches Hg (1018.0 mb)
Winds: calm
Visibility: 3 miles ( 5 km)
Ceiling: at least 12,000 feet AGL
Clouds: sky clear below 12,000 feet AGL
Weather: HZ  (haze)

METAR text: VOHY 181530Z 00000KT 5000 HZ NSC 22/14 Q1018 NOSIG
Conditions at: VOHY (HYDERABAD (CIV/M, IN) observed 1530 UTC 18 January 2019
Temperature: 22.0°C (72°F)
Dewpoint: 14.0°C (57°F) [RH = 60%]
Pressure (altimeter): 30.06 inches Hg (1018.0 mb)
Winds: calm
Visibility: 3 miles ( 5 km)
Ceiling: at least 12,000 feet AGL
Clouds: sky clear below 12,000 feet AGL
Weather: HZ  (haze)

METAR text: VOHY 181430Z 00000KT 5000 HZ NSC 22/14 Q1017 NOSIG
Conditions at: VOHY (HYDERABAD (CIV/M, IN) observed 1430 UTC 18 January 2019
Temperature: 22.0°C (72°F)
Dewpoint: 14.0°C (57°F) [RH = 60%]
Pressure (altimeter): 30.03 inches Hg (1017.0 mb)
Winds: calm
Visibility: 3 miles ( 5 km)
Ceiling: at least 12,000 feet AGL
Clouds: sky clear below 12,000 feet AGL
Weather: HZ  (haze)

METAR text: VOHY 181400Z 00000KT 5000 HZ NSC 24/14 Q1017 NOSIG
Conditions at: VOHY (HYDERABAD (CIV/M, IN) observed 1400 UTC 18 January 2019
Temperature: 24.0°C (75°F)
Dewpoint: 14.0°C (57°F) [RH = 54%]
Pressure (altimeter): 30.03 inches Hg (1017.0 mb)
Winds: calm
Visibility: 3 miles ( 5 km)
Ceiling: at least 12,000 feet AGL
Clouds: sky clear below 12,000 feet AGL
Weather: HZ  (haze)

METAR text: VOHY 181330Z 00000KT 5000 HZ NSC 25/14 Q1017 NOSIG
Conditions at: VOHY (HYDERABAD (CIV/M, IN) observed 1330 UTC 18 January 2019
Temperature: 25.0°C (77°F)
Dewpoint: 14.0°C (57°F) [RH = 50%]
Pressure (altimeter): 30.03 inches Hg (1017.0 mb)
Winds: calm
Visibility: 3 miles ( 5 km)
Ceiling: at least 12,000 feet AGL
Clouds: sky clear below 12,000 feet AGL
Weather: HZ  (haze)

METAR text: VOHY 181300Z 00000KT 5000 HZ NSC 26/13 Q1016 NOSIG
Conditions at: VOHY (HYDERABAD (CIV/M, IN) observed 1300 UTC 18 January 2019
Temperature: 26.0°C (79°F)
Dewpoint: 13.0°C (55°F) [RH = 45%]
Pressure (altimeter): 30.00 inches Hg (1016.0 mb)
Winds: calm
Visibility: 3 miles ( 5 km)
Ceiling: at least 12,000 feet AGL
Clouds: sky clear below 12,000 feet AGL
Weather: HZ  (haze)

METAR text: VOHY 181230Z 00000KT 5000 HZ NSC 27/13 Q1016 NOSIG
Conditions at: VOHY (HYDERABAD (CIV/M, IN) observed 1230 UTC 18 January 2019
Temperature: 27.0°C (81°F)
Dewpoint: 13.0°C (55°F) [RH = 42%]
Pressure (altimeter): 30.00 inches Hg (1016.0 mb)
Winds: calm
Visibility: 3 miles ( 5 km)
Ceiling: at least 12,000 feet AGL
Clouds: sky clear below 12,000 feet AGL
Weather: HZ  (haze)

METAR text: VOHY 181200Z VRB02KT 5000 HZ NSC 28/14 Q1016 NOSIG
Conditions at: VOHY (HYDERABAD (CIV/M, IN) observed 1200 UTC 18 January 2019
Temperature: 28.0°C (82°F)
Dewpoint: 14.0°C (57°F) [RH = 42%]
Pressure (altimeter): 30.00 inches Hg (1016.0 mb)
Winds: variable direction winds at 2 MPH (2 knots; 1.0 m/s)
Visibility: 3 miles ( 5 km)
Ceiling: at least 12,000 feet AGL
Clouds: sky clear below 12,000 feet AGL
Weather: HZ  (haze)

METAR text: VOHY 181130Z VRB02KT 5000 HZ NSC 29/14 Q1016 NOSIG
Conditions at: VOHY (HYDERABAD (CIV/M, IN) observed 1130 UTC 18 January 2019
Temperature: 29.0°C (84°F)
Dewpoint: 14.0°C (57°F) [RH = 40%]
Pressure (altimeter): 30.00 inches Hg (1016.0 mb)
Winds: variable direction winds at 2 MPH (2 knots; 1.0 m/s)
Visibility: 3 miles ( 5 km)
Ceiling: at least 12,000 feet AGL
Clouds: sky clear below 12,000 feet AGL
Weather: HZ  (haze)

METAR text: VOHY 181100Z VRB02KT 5000 HZ NSC 30/15 Q1015 NOSIG
Conditions at: VOHY (HYDERABAD (CIV/M, IN) observed 1100 UTC 18 January 2019
Temperature: 30.0°C (86°F)
Dewpoint: 15.0°C (59°F) [RH = 40%]
Pressure (altimeter): 29.97 inches Hg (1015.0 mb)
Winds: variable direction winds at 2 MPH (2 knots; 1.0 m/s)
Visibility: 3 miles ( 5 km)
Ceiling: at least 12,000 feet AGL
Clouds: sky clear below 12,000 feet AGL
Weather: HZ  (haze)

METAR text: VOHY 181030Z VRB02KT 5000 HZ NSC 30/13 Q1015 NOSIG
Conditions at: VOHY (HYDERABAD (CIV/M, IN) observed 1030 UTC 18 January 2019
Temperature: 30.0°C (86°F)
Dewpoint: 13.0°C (55°F) [RH = 35%]
Pressure (altimeter): 29.97 inches Hg (1015.0 mb)
Winds: variable direction winds at 2 MPH (2 knots; 1.0 m/s)
Visibility: 3 miles ( 5 km)
Ceiling: at least 12,000 feet AGL
Clouds: sky clear below 12,000 feet AGL
Weather: HZ  (haze)

METAR text: VOHY 181000Z VRB03KT 5000 HZ NSC 31/12 Q1015 NOSIG
Conditions at: VOHY (HYDERABAD (CIV/M, IN) observed 1000 UTC 18 January 2019
Temperature: 31.0°C (88°F)
Dewpoint: 12.0°C (54°F) [RH = 31%]
Pressure (altimeter): 29.97 inches Hg (1015.0 mb)
Winds: variable direction winds at 3 MPH (3 knots; 1.5 m/s)
Visibility: 3 miles ( 5 km)
Ceiling: at least 12,000 feet AGL
Clouds: sky clear below 12,000 feet AGL
Weather: HZ  (haze)

METAR text: VOHY 180930Z 09005KT 5000 HZ NSC 30/12 Q1016 NOSIG
Conditions at: VOHY (HYDERABAD (CIV/M, IN) observed 0930 UTC 18 January 2019
Temperature: 30.0°C (86°F)
Dewpoint: 12.0°C (54°F) [RH = 33%]
Pressure (altimeter): 30.00 inches Hg (1016.0 mb)
Winds: from the E (90 degrees) at 6 MPH (5 knots; 2.6 m/s)
Visibility: 3 miles ( 5 km)
Ceiling: at least 12,000 feet AGL
Clouds: sky clear below 12,000 feet AGL
Weather: HZ  (haze)

METAR text: VOHY 180900Z 00000KT 5000 HZ NSC 30/12 Q1016 NOSIG
Conditions at: VOHY (HYDERABAD (CIV/M, IN) observed 0900 UTC 18 January 2019
Temperature: 30.0°C (86°F)
Dewpoint: 12.0°C (54°F) [RH = 33%]
Pressure (altimeter): 30.00 inches Hg (1016.0 mb)
Winds: calm
Visibility: 3 miles ( 5 km)
Ceiling: at least 12,000 feet AGL
Clouds: sky clear below 12,000 feet AGL
Weather: HZ  (haze)

METAR text: VOHY 180830Z 09006KT 5000 HZ NSC 30/13 Q1016 NOSIG
Conditions at: VOHY (HYDERABAD (CIV/M, IN) observed 0830 UTC 18 January 2019
Temperature: 30.0°C (86°F)
Dewpoint: 13.0°C (55°F) [RH = 35%]
Pressure (altimeter): 30.00 inches Hg (1016.0 mb)
Winds: from the E (90 degrees) at 7 MPH (6 knots; 3.1 m/s)
Visibility: 3 miles ( 5 km)
Ceiling: at least 12,000 feet AGL
Clouds: sky clear below 12,000 feet AGL
Weather: HZ  (haze)

METAR text: VOHY 180800Z 11006KT 5000 HZ NSC 29/12 Q1017 NOSIG
Conditions at: VOHY (HYDERABAD (CIV/M, IN) observed 0800 UTC 18 January 2019
Temperature: 29.0°C (84°F)
Dewpoint: 12.0°C (54°F) [RH = 35%]
Pressure (altimeter): 30.03 inches Hg (1017.0 mb)
Winds: from the ESE (110 degrees) at 7 MPH (6 knots; 3.1 m/s)
Visibility: 3 miles ( 5 km)
Ceiling: at least 12,000 feet AGL
Clouds: sky clear below 12,000 feet AGL
Weather: HZ  (haze)

METAR text: VOHY 180730Z 11006KT 5000 HZ NSC 29/12 Q1017 NOSIG
Conditions at: VOHY (HYDERABAD (CIV/M, IN) observed 0730 UTC 18 January 2019
Temperature: 29.0°C (84°F)
Dewpoint: 12.0°C (54°F) [RH = 35%]
Pressure (altimeter): 30.03 inches Hg (1017.0 mb)
Winds: from the ESE (110 degrees) at 7 MPH (6 knots; 3.1 m/s)
Visibility: 3 miles ( 5 km)
Ceiling: at least 12,000 feet AGL
Clouds: sky clear below 12,000 feet AGL
Weather: HZ  (haze)

METAR text: VOHY 180700Z VRB03KT 5000 HZ NSC 29/13 Q1019 NOSIG
Conditions at: VOHY (HYDERABAD (CIV/M, IN) observed 0700 UTC 18 January 2019
Temperature: 29.0°C (84°F)
Dewpoint: 13.0°C (55°F) [RH = 37%]
Pressure (altimeter): 30.09 inches Hg (1019.0 mb)
Winds: variable direction winds at 3 MPH (3 knots; 1.5 m/s)
Visibility: 3 miles ( 5 km)
Ceiling: at least 12,000 feet AGL
Clouds: sky clear below 12,000 feet AGL
Weather: HZ  (haze)

METAR text: VOHY 180630Z 18005KT 5000 HZ NSC 29/14 Q1019 NOSIG
Conditions at: VOHY (HYDERABAD (CIV/M, IN) observed 0630 UTC 18 January 2019
Temperature: 29.0°C (84°F)
Dewpoint: 14.0°C (57°F) [RH = 40%]
Pressure (altimeter): 30.09 inches Hg (1019.0 mb)
Winds: from the S (180 degrees) at 6 MPH (5 knots; 2.6 m/s)
Visibility: 3 miles ( 5 km)
Ceiling: at least 12,000 feet AGL
Clouds: sky clear below 12,000 feet AGL
Weather: HZ  (haze)

METAR text: VOHY 180530Z 14005KT 5000 HZ NSC 28/17 Q1020 NOSIG
Conditions at: VOHY (HYDERABAD (CIV/M, IN) observed 0530 UTC 18 January 2019
Temperature: 28.0°C (82°F)
Dewpoint: 17.0°C (63°F) [RH = 51%]
Pressure (altimeter): 30.12 inches Hg (1020.0 mb)
Winds: from the SE (140 degrees) at 6 MPH (5 knots; 2.6 m/s)
Visibility: 3 miles ( 5 km)
Ceiling: at least 12,000 feet AGL
Clouds: sky clear below 12,000 feet AGL
Weather: HZ  (haze)

METAR text: VOHY 180500Z 00000KT 5000 HZ NSC 27/17 Q1020 NOSIG
Conditions at: VOHY (HYDERABAD (CIV/M, IN) observed 0500 UTC 18 January 2019
Temperature: 27.0°C (81°F)
Dewpoint: 17.0°C (63°F) [RH = 54%]
Pressure (altimeter): 30.12 inches Hg (1020.0 mb)
Winds: calm
Visibility: 3 miles ( 5 km)
Ceiling: at least 12,000 feet AGL
Clouds: sky clear below 12,000 feet AGL
Weather: HZ  (haze)

METAR text: VOHY 180430Z 00000KT 5000 HZ NSC 26/19 Q1020 NOSIG
Conditions at: VOHY (HYDERABAD (CIV/M, IN) observed 0430 UTC 18 January 2019
Temperature: 26.0°C (79°F)
Dewpoint: 19.0°C (66°F) [RH = 65%]
Pressure (altimeter): 30.12 inches Hg (1020.0 mb)
Winds: calm
Visibility: 3 miles ( 5 km)
Ceiling: at least 12,000 feet AGL
Clouds: sky clear below 12,000 feet AGL
Weather: HZ  (haze)

METAR text: VOHY 180400Z 00000KT 3000 HZ NSC 26/19 Q1020 BECMG 5000
Conditions at: VOHY (HYDERABAD (CIV/M, IN) observed 0400 UTC 18 January 2019
Temperature: 26.0°C (79°F)
Dewpoint: 19.0°C (66°F) [RH = 65%]
Pressure (altimeter): 30.12 inches Hg (1020.0 mb)
Winds: calm
Visibility: 1.86 miles (2.99 km)
Ceiling: at least 12,000 feet AGL
Clouds: sky clear below 12,000 feet AGL
Weather: HZ  (haze)

METAR text: VOHY 180330Z 00000KT 3000 HZ NSC 23/20 Q1020 NOSIG
Conditions at: VOHY (HYDERABAD (CIV/M, IN) observed 0330 UTC 18 January 2019
Temperature: 23.0°C (73°F)
Dewpoint: 20.0°C (68°F) [RH = 83%]
Pressure (altimeter): 30.12 inches Hg (1020.0 mb)
Winds: calm
Visibility: 1.86 miles (2.99 km)
Ceiling: at least 12,000 feet AGL
Clouds: sky clear below 12,000 feet AGL
Weather: HZ  (haze)

METAR text: VOHY 180300Z 00000KT 1500 BR NSC 19/18 Q1018 BECMG 3000 HZ
Conditions at: VOHY (HYDERABAD (CIV/M, IN) observed 0300 UTC 18 January 2019
Temperature: 19.0°C (66°F)
Dewpoint: 18.0°C (64°F) [RH = 94%]
Pressure (altimeter): 30.06 inches Hg (1018.0 mb)
Winds: calm
Visibility: 0.93 miles (1.50 km)
Ceiling: at least 12,000 feet AGL
Clouds: sky clear below 12,000 feet AGL
Weather: BR  (mist)

METAR text: VOHY 180230Z 00000KT 1500 BR NSC 16/14 Q1017 BECMG 3000 HZ
Conditions at: VOHY (HYDERABAD (CIV/M, IN) observed 0230 UTC 18 January 2019
Temperature: 16.0°C (61°F)
Dewpoint: 14.0°C (57°F) [RH = 88%]
Pressure (altimeter): 30.03 inches Hg (1017.0 mb)
Winds: calm
Visibility: 0.93 miles (1.50 km)
Ceiling: at least 12,000 feet AGL
Clouds: sky clear below 12,000 feet AGL
Weather: BR  (mist)

METAR text: VOHY 180200Z 00000KT 1500 BR NSC 15/14 Q1017 BECMG 3000 HZ
Conditions at: VOHY (HYDERABAD (CIV/M, IN) observed 0200 UTC 18 January 2019
Temperature: 15.0°C (59°F)
Dewpoint: 14.0°C (57°F) [RH = 94%]
Pressure (altimeter): 30.03 inches Hg (1017.0 mb)
Winds: calm
Visibility: 0.93 miles (1.50 km)
Ceiling: at least 12,000 feet AGL
Clouds: sky clear below 12,000 feet AGL
Weather: BR  (mist)

METAR text: VOHY 180130Z 00000KT 1500 BR NSC 15/14 Q1017 NOSIG
Conditions at: VOHY (HYDERABAD (CIV/M, IN) observed 0130 UTC 18 January 2019
Temperature: 15.0°C (59°F)
Dewpoint: 14.0°C (57°F) [RH = 94%]
Pressure (altimeter): 30.03 inches Hg (1017.0 mb)
Winds: calm
Visibility: 0.93 miles (1.50 km)
Ceiling: at least 12,000 feet AGL
Clouds: sky clear below 12,000 feet AGL
Weather: BR  (mist)

Forecast for: VOHY (HYDERABAD (CIV/M, IN)
Text: TAF VOHY 191100Z 1912/1921 06006KT 5000 HZ NSC
Forecast period: 1200 to 1900 UTC 19 January 2019
Forecast type: FROM: standard forecast or significant change
Winds: from the ENE (60 degrees) at 7 MPH (6 knots; 3.1 m/s)
Visibility: 3 miles (5 km)
Ceiling: unknown
Clouds: missing
Weather: HZ  (haze)
Text: BECMG 1919/1921 10005KT 3000 BR NSC
Forecast period: 1900 to 2100 UTC 19 January 2019
Forecast type: BECOMING: Conditions expected to become as follows by 2100 UTC 19 January 2019
Winds: from the E (100 degrees) at 6 MPH (5 knots; 2.6 m/s)
Visibility: 1.86 miles (2.99 km)
Ceiling: unknown
Clouds: missing
Weather: BR  (mist)